createdAt,value
2022-12-31T00:02:58.159Z,4.18
2022-12-31T00:08:01.737Z,6.57
2022-12-31T00:13:04.854Z,4.25
2022-12-31T00:18:08.461Z,5.45
2022-12-31T00:23:12.639Z,3.30
2022-12-31T00:28:16.093Z,3.67
2022-12-31T00:33:18.844Z,3.72
2022-12-31T00:38:21.870Z,3.90
2022-12-31T00:43:24.412Z,4.68
2022-12-31T00:48:27.580Z,4.32
2022-12-31T00:53:30.996Z,4.13
2022-12-31T00:58:35.569Z,3.00
2022-12-31T01:03:39.084Z,5.65
2022-12-31T01:08:42.058Z,1.73
2022-12-31T01:13:55.188Z,2.22
2022-12-31T01:19:04.017Z,2.05
2022-12-31T01:24:08.146Z,4.38
2022-12-31T01:29:12.431Z,4.40
2022-12-31T01:34:15.978Z,4.18
2022-12-31T01:39:20.519Z,4.05
2022-12-31T01:44:26.141Z,3.65
2022-12-31T01:50:03.975Z,8.52
2022-12-31T01:55:25.430Z,2.38
2022-12-31T02:00:28.018Z,6.57
2022-12-31T02:05:40.142Z,3.45
2022-12-31T02:10:43.361Z,4.32
2022-12-31T02:16:18.810Z,11.13
2022-12-31T02:21:58.319Z,5.22
2022-12-31T02:27:09.511Z,7.90
2022-12-31T02:32:17.429Z,9.70
2022-12-31T02:37:23.490Z,4.10
2022-12-31T02:42:26.583Z,13.68
2022-12-31T02:48:02.970Z,5.93
2022-12-31T02:53:26.455Z,9.82
2022-12-31T02:59:21.767Z,17.20
2022-12-31T03:04:32.178Z,11.75
2022-12-31T03:09:36.259Z,17.15
2022-12-31T03:14:39.407Z,15.73
2022-12-31T03:20:01.392Z,16.15
2022-12-31T03:25:30.595Z,10.70
2022-12-31T03:30:34.250Z,16.75
2022-12-31T03:35:39.928Z,6.47
2022-12-31T03:40:47.638Z,12.45
2022-12-31T03:45:52.807Z,7.25
2022-12-31T03:50:56.244Z,8.10
2022-12-31T03:55:59.367Z,9.30
2022-12-31T04:01:02.421Z,11.82
2022-12-31T04:06:05.647Z,16.13
2022-12-31T04:11:08.433Z,14.30
2022-12-31T04:16:11.201Z,11.68
2022-12-31T04:21:13.706Z,11.55
2022-12-31T04:26:16.506Z,16.17
2022-12-31T04:31:20.203Z,8.60
2022-12-31T04:36:23.613Z,11.80
2022-12-31T04:41:27.289Z,10.65
2022-12-31T04:46:33.605Z,20.85
2022-12-31T04:51:36.515Z,11.45
2022-12-31T04:56:39.201Z,11.40
2022-12-31T05:01:42.042Z,13.77
2022-12-31T05:06:44.829Z,16.25
2022-12-31T05:11:47.641Z,13.35
2022-12-31T05:16:52.285Z,12.43
2022-12-31T05:22:14.052Z,8.05
2022-12-31T05:27:17.346Z,11.85
2022-12-31T05:32:20.401Z,13.65
2022-12-31T05:37:23.513Z,12.68
2022-12-31T05:42:27.284Z,13.48
2022-12-31T05:47:30.228Z,12.35
2022-12-31T05:52:32.959Z,13.10
2022-12-31T05:57:35.542Z,8.60
2022-12-31T06:02:38.223Z,17.73
2022-12-31T06:07:41.048Z,12.88
2022-12-31T06:12:43.593Z,14.27
2022-12-31T06:17:46.429Z,10.98
2022-12-31T06:22:49.191Z,9.75
2022-12-31T06:27:51.904Z,10.65
2022-12-31T06:32:56.118Z,7.55
2022-12-31T06:37:59.310Z,17.53
2022-12-31T06:43:02.655Z,7.03
2022-12-31T06:48:06.253Z,16.30
2022-12-31T06:53:09.034Z,14.80
2022-12-31T06:58:16.430Z,11.95
2022-12-31T07:03:45.650Z,12.30
2022-12-31T07:09:14.431Z,5.88
2022-12-31T07:14:44.252Z,8.52
2022-12-31T07:20:12.786Z,22.48
2022-12-31T07:25:18.788Z,9.65
2022-12-31T07:30:33.086Z,18.90
2022-12-31T07:35:57.852Z,15.73
2022-12-31T07:41:28.763Z,10.88
2022-12-31T07:46:59.396Z,10.20
2022-12-31T07:52:03.155Z,10.25
2022-12-31T07:57:07.250Z,14.43
2022-12-31T08:02:59.049Z,15.30
2022-12-31T08:08:02.467Z,13.15
2022-12-31T08:13:12.007Z,10.90
2022-12-31T08:18:16.454Z,18.92
2022-12-31T08:23:45.053Z,8.38
2022-12-31T08:29:23.231Z,9.25
2022-12-31T08:34:40.107Z,6.45
2022-12-31T08:39:42.668Z,7.80
2022-12-31T08:45:14.115Z,11.48
2022-12-31T08:50:19.416Z,12.35
2022-12-31T08:55:25.786Z,45.58
2022-12-31T09:00:30.732Z,16.13
2022-12-31T09:05:54.189Z,30.85
2022-12-31T09:11:23.843Z,24.25
2022-12-31T09:17:04.757Z,16.08
2022-12-31T09:22:10.490Z,4.32
2022-12-31T09:27:55.782Z,15.70
2022-12-31T09:39:01.616Z,4.05
2022-12-31T09:44:52.816Z,8.30
2022-12-31T09:50:40.054Z,6.38
2022-12-31T09:56:28.802Z,5.60
2022-12-31T10:02:20.253Z,7.55
2022-12-31T10:07:53.795Z,11.32
2022-12-31T10:13:23.094Z,7.25
2022-12-31T10:19:13.697Z,8.38
2022-12-31T10:24:35.218Z,7.32
2022-12-31T10:29:57.344Z,7.30
2022-12-31T10:35:15.204Z,6.30
2022-12-31T10:40:37.396Z,7.10
2022-12-31T10:45:55.830Z,4.80
2022-12-31T10:51:40.591Z,6.28
2022-12-31T10:57:07.572Z,4.83
2022-12-31T11:02:41.516Z,10.60
2022-12-31T11:08:21.260Z,7.05
2022-12-31T11:13:47.171Z,8.55
2022-12-31T11:24:52.843Z,8.05
2022-12-31T11:30:07.455Z,9.35
2022-12-31T11:35:19.856Z,12.38
2022-12-31T11:40:44.181Z,11.93
2022-12-31T11:46:20.619Z,14.80
2022-12-31T11:51:42.102Z,14.20
2022-12-31T11:57:18.534Z,11.20
2022-12-31T12:02:30.261Z,14.25
2022-12-31T12:07:34.610Z,17.85
2022-12-31T12:12:42.811Z,13.00
2022-12-31T12:17:56.079Z,16.48
2022-12-31T12:23:02.300Z,16.60
2022-12-31T12:28:31.254Z,14.90
2022-12-31T12:33:55.873Z,19.17
2022-12-31T12:39:09.033Z,19.33
2022-12-31T12:44:21.624Z,13.43
2022-12-31T12:49:52.412Z,17.42
2022-12-31T12:55:49.932Z,17.88
2022-12-31T13:02:04.537Z,16.40
2022-12-31T13:07:39.346Z,21.20
2022-12-31T13:13:24.366Z,16.85
2022-12-31T13:19:22.004Z,26.88
2022-12-31T13:25:05.575Z,30.30
2022-12-31T13:30:19.680Z,23.58
2022-12-31T13:35:33.832Z,17.17
2022-12-31T13:41:13.546Z,17.02
2022-12-31T13:46:45.707Z,19.42
2022-12-31T13:51:56.333Z,17.50
2022-12-31T13:57:12.582Z,16.25
2022-12-31T14:02:51.247Z,19.17
2022-12-31T14:08:00.968Z,14.73
2022-12-31T14:13:36.010Z,19.98
2022-12-31T14:18:41.264Z,18.92
2022-12-31T14:29:11.969Z,18.23
2022-12-31T14:34:53.297Z,15.73
2022-12-31T14:40:39.918Z,11.85
2022-12-31T14:46:30.795Z,16.83
2022-12-31T14:51:37.107Z,17.35
2022-12-31T14:56:45.903Z,14.77
2022-12-31T15:01:49.659Z,18.55
2022-12-31T15:07:17.919Z,16.17
2022-12-31T15:13:28.024Z,20.60
2022-12-31T15:19:03.223Z,45.47
2022-12-31T15:24:24.768Z,27.57
2022-12-31T15:29:35.971Z,38.92
2022-12-31T15:34:38.679Z,18.73
2022-12-31T15:39:44.569Z,18.70
2022-12-31T15:44:56.888Z,15.88
2022-12-31T15:50:21.435Z,17.40
2022-12-31T15:55:42.567Z,22.13
2022-12-31T16:01:25.035Z,25.67
2022-12-31T16:06:31.567Z,18.45
2022-12-31T16:11:38.566Z,22.70
2022-12-31T16:16:50.685Z,22.45
2022-12-31T16:21:57.854Z,19.30
2022-12-31T16:27:16.489Z,12.68
2022-12-31T16:32:19.944Z,18.88
2022-12-31T16:37:24.690Z,13.32
2022-12-31T16:42:29.663Z,14.55
2022-12-31T16:47:35.764Z,14.60
2022-12-31T16:52:42.015Z,16.60
2022-12-31T16:57:55.807Z,19.23
2022-12-31T17:03:17.452Z,17.33
2022-12-31T17:08:38.577Z,17.73
2022-12-31T17:13:41.159Z,13.40
2022-12-31T17:18:45.348Z,17.05
2022-12-31T17:23:55.476Z,13.67
2022-12-31T17:29:00.232Z,16.63
2022-12-31T17:34:24.117Z,21.98
2022-12-31T17:39:38.747Z,15.77
2022-12-31T17:44:44.735Z,19.05
2022-12-31T17:49:47.472Z,17.70
2022-12-31T17:54:50.028Z,12.20
2022-12-31T17:59:52.855Z,12.85
2022-12-31T18:04:55.837Z,15.93
2022-12-31T18:09:58.427Z,21.92
2022-12-31T18:15:01.196Z,17.42
2022-12-31T18:20:08.151Z,14.68
2022-12-31T18:25:19.199Z,9.77
2022-12-31T18:30:23.412Z,8.50
2022-12-31T18:36:06.666Z,12.43
2022-12-31T18:40:55.705Z,18.23
2022-12-31T18:45:58.475Z,17.33
2022-12-31T18:51:01.023Z,12.52
2022-12-31T18:56:03.680Z,17.83
2022-12-31T19:01:09.887Z,17.73
2022-12-31T19:06:12.703Z,15.90
2022-12-31T19:11:15.978Z,16.33
2022-12-31T19:16:18.749Z,12.02
2022-12-31T19:21:23.800Z,16.15
2022-12-31T19:26:26.653Z,9.27
2022-12-31T19:31:29.254Z,17.70
2022-12-31T19:36:32.129Z,8.80
2022-12-31T19:41:35.110Z,14.45
2022-12-31T19:46:37.705Z,11.07
2022-12-31T19:51:41.123Z,17.67
2022-12-31T19:56:44.148Z,10.95
2022-12-31T20:01:46.944Z,20.20
2022-12-31T20:06:49.893Z,15.63
2022-12-31T20:11:52.533Z,12.32
2022-12-31T20:16:56.247Z,15.90
2022-12-31T20:21:59.615Z,22.08
2022-12-31T20:27:02.411Z,10.05
2022-12-31T20:32:05.529Z,18.58
2022-12-31T20:37:08.508Z,18.52
2022-12-31T20:42:11.162Z,16.00
2022-12-31T20:47:13.812Z,13.57
2022-12-31T20:52:16.397Z,11.20
2022-12-31T20:57:18.998Z,15.23
2022-12-31T21:02:29.515Z,8.27
2022-12-31T21:07:42.023Z,13.00
2022-12-31T21:12:44.859Z,11.10
2022-12-31T21:17:47.655Z,9.82
2022-12-31T21:22:50.263Z,13.75
2022-12-31T21:27:52.828Z,11.02
2022-12-31T21:32:55.437Z,12.27
2022-12-31T21:38:03.217Z,13.55
2022-12-31T21:43:05.831Z,11.95
2022-12-31T21:48:20.659Z,13.88
2022-12-31T21:53:32.078Z,11.60
2022-12-31T22:03:45.663Z,59.08
2022-12-31T22:09:37.187Z,161.40
2022-12-31T22:14:39.896Z,119.97
2022-12-31T22:20:26.479Z,87.53
2022-12-31T22:25:25.138Z,49.70
2022-12-31T22:30:28.141Z,45.72
2022-12-31T22:35:30.729Z,29.15
2022-12-31T22:40:33.637Z,27.85
2022-12-31T22:45:37.436Z,14.15
2022-12-31T22:50:40.064Z,14.48
2022-12-31T22:55:43.522Z,5.28
2022-12-31T23:00:47.140Z,11.68
2022-12-31T23:05:52.568Z,10.27
2022-12-31T23:11:00.475Z,17.50
2022-12-31T23:16:21.954Z,8.57
2022-12-31T23:21:43.239Z,16.30
2022-12-31T23:26:45.793Z,9.18
2022-12-31T23:31:48.442Z,16.08
2022-12-31T23:36:51.342Z,19.67
2022-12-31T23:41:54.059Z,7.60
2022-12-31T23:46:56.922Z,14.25
2022-12-31T23:51:59.587Z,7.57
2022-12-31T23:57:02.232Z,12.25
